createdAt,value
2022-12-31T00:00:26.540Z,3.30
2022-12-31T00:04:27.697Z,2.60
2022-12-31T00:08:28.861Z,2.60
2022-12-31T00:12:30.018Z,3.50
2022-12-31T00:16:37.095Z,3.27
2022-12-31T00:20:40.675Z,3.07
2022-12-31T00:24:41.831Z,2.77
2022-12-31T00:28:44.197Z,2.90
2022-12-31T00:32:45.362Z,4.03
2022-12-31T00:36:46.599Z,3.77
2022-12-31T00:40:47.750Z,2.60
2022-12-31T00:44:49.046Z,6.43
2022-12-31T00:48:50.641Z,3.33
2022-12-31T00:52:51.788Z,5.43
2022-12-31T00:56:52.830Z,3.27
2022-12-31T01:00:54.276Z,2.60
2022-12-31T01:04:55.465Z,3.50
2022-12-31T01:08:56.684Z,3.60
2022-12-31T01:12:59.126Z,2.67
2022-12-31T01:17:00.344Z,2.40
2022-12-31T01:21:04.046Z,2.57
2022-12-31T01:25:06.095Z,4.00
2022-12-31T01:29:09.311Z,3.43
2022-12-31T01:33:10.490Z,2.80
2022-12-31T01:37:11.721Z,4.03
2022-12-31T01:41:16.236Z,3.10
2022-12-31T01:45:17.452Z,2.60
2022-12-31T01:49:42.401Z,3.30
2022-12-31T01:53:43.790Z,2.97
2022-12-31T01:57:48.304Z,3.10
2022-12-31T02:01:53.346Z,2.70
2022-12-31T02:06:03.935Z,2.73
2022-12-31T02:10:05.918Z,3.60
2022-12-31T02:14:26.205Z,4.47
2022-12-31T02:18:31.240Z,4.70
2022-12-31T02:23:10.171Z,3.43
2022-12-31T02:27:41.386Z,4.37
2022-12-31T02:31:52.355Z,3.27
2022-12-31T02:35:57.340Z,3.50
2022-12-31T02:39:59.765Z,2.50
2022-12-31T02:44:02.138Z,3.93
2022-12-31T02:48:12.944Z,3.43
2022-12-31T02:52:17.936Z,2.60
2022-12-31T02:56:37.745Z,3.00
2022-12-31T03:01:04.278Z,3.23
2022-12-31T03:05:07.631Z,6.37
2022-12-31T03:09:14.788Z,2.97
2022-12-31T03:13:15.999Z,3.80
2022-12-31T03:17:17.175Z,4.57
2022-12-31T03:21:36.912Z,2.83
2022-12-31T03:25:38.284Z,3.00
2022-12-31T03:29:39.473Z,4.37
2022-12-31T03:33:41.849Z,5.63
2022-12-31T03:37:43.266Z,7.27
2022-12-31T03:41:44.447Z,2.90
2022-12-31T03:45:53.746Z,3.17
2022-12-31T03:49:55.152Z,5.90
2022-12-31T03:53:56.357Z,3.70
2022-12-31T03:57:57.633Z,2.60
2022-12-31T04:01:58.916Z,2.40
2022-12-31T04:06:00.138Z,4.27
2022-12-31T04:10:03.109Z,3.20
2022-12-31T04:14:05.105Z,3.87
2022-12-31T04:18:06.293Z,2.67
2022-12-31T04:22:07.473Z,4.63
2022-12-31T04:26:08.671Z,2.87
2022-12-31T04:30:11.250Z,3.37
2022-12-31T04:34:12.551Z,3.03
2022-12-31T04:38:13.743Z,4.20
2022-12-31T04:42:14.913Z,3.83
2022-12-31T04:46:18.392Z,4.43
2022-12-31T04:50:19.564Z,2.97
2022-12-31T04:54:20.891Z,3.27
2022-12-31T04:58:22.959Z,4.93
2022-12-31T05:02:25.233Z,5.60
2022-12-31T05:06:26.828Z,3.70
2022-12-31T05:10:28.828Z,2.57
2022-12-31T05:14:30.732Z,3.53
2022-12-31T05:18:33.307Z,2.67
2022-12-31T05:22:35.288Z,4.20
2022-12-31T05:26:37.157Z,3.60
2022-12-31T05:30:38.872Z,3.73
2022-12-31T05:34:40.538Z,2.87
2022-12-31T05:38:43.682Z,3.70
2022-12-31T05:42:45.461Z,3.00
2022-12-31T05:46:48.107Z,2.17
2022-12-31T05:50:49.828Z,3.40
2022-12-31T05:54:51.285Z,2.80
2022-12-31T05:58:54.734Z,2.87
2022-12-31T06:02:58.558Z,2.90
2022-12-31T06:07:00.204Z,3.30
2022-12-31T06:11:01.700Z,3.50
2022-12-31T06:15:03.873Z,2.63
2022-12-31T06:19:05.413Z,3.97
2022-12-31T06:23:07.206Z,4.10
2022-12-31T06:27:09.640Z,2.60
2022-12-31T06:31:13.940Z,3.90
2022-12-31T06:35:15.788Z,3.20
2022-12-31T06:39:17.107Z,2.93
2022-12-31T06:43:18.970Z,2.37
2022-12-31T06:47:20.220Z,3.33
2022-12-31T06:51:21.819Z,2.87
2022-12-31T06:55:24.200Z,2.43
2022-12-31T06:59:28.575Z,3.10
2022-12-31T07:03:50.418Z,5.87
2022-12-31T07:08:24.955Z,4.10
2022-12-31T07:12:57.059Z,3.50
2022-12-31T07:17:08.025Z,6.37
2022-12-31T07:21:15.090Z,3.43
2022-12-31T07:25:18.221Z,2.60
2022-12-31T07:29:29.341Z,5.33
2022-12-31T07:33:51.001Z,3.60
2022-12-31T07:37:55.997Z,3.37
2022-12-31T07:42:22.435Z,3.30
2022-12-31T07:46:39.832Z,3.27
2022-12-31T07:50:41.479Z,3.80
2022-12-31T07:54:43.077Z,7.10
2022-12-31T07:59:17.383Z,3.37
2022-12-31T08:03:39.521Z,4.80
2022-12-31T08:07:59.691Z,3.37
2022-12-31T08:12:01.326Z,4.20
2022-12-31T08:16:03.310Z,3.90
2022-12-31T08:20:05.624Z,4.43
2022-12-31T08:24:33.965Z,3.20
2022-12-31T08:28:54.084Z,4.57
2022-12-31T08:33:04.745Z,3.93
2022-12-31T08:37:29.415Z,4.57
2022-12-31T08:41:46.486Z,3.60
2022-12-31T08:45:52.250Z,6.13
2022-12-31T08:49:54.767Z,4.60
2022-12-31T08:53:56.774Z,3.43
2022-12-31T08:58:11.028Z,4.40
2022-12-31T09:02:22.289Z,2.80
2022-12-31T09:06:45.451Z,5.70
2022-12-31T09:11:01.383Z,3.70
2022-12-31T09:15:21.783Z,4.60
2022-12-31T09:19:23.262Z,3.30
2022-12-31T09:23:24.850Z,4.50
2022-12-31T09:27:38.600Z,3.87
2022-12-31T09:31:46.436Z,4.50
2022-12-31T09:35:51.767Z,5.20
2022-12-31T09:39:57.020Z,3.50
2022-12-31T09:44:20.698Z,3.87
2022-12-31T09:49:01.122Z,3.87
2022-12-31T09:53:24.957Z,4.63
2022-12-31T09:57:35.603Z,3.50
2022-12-31T10:02:05.602Z,4.43
2022-12-31T10:06:22.463Z,3.90
2022-12-31T10:10:27.726Z,4.63
2022-12-31T10:14:42.410Z,4.43
2022-12-31T10:19:12.558Z,3.33
2022-12-31T10:23:37.317Z,4.17
2022-12-31T10:27:45.566Z,3.30
2022-12-31T10:31:59.435Z,4.60
2022-12-31T10:36:04.897Z,3.07
2022-12-31T10:40:20.114Z,4.17
2022-12-31T10:44:41.824Z,4.27
2022-12-31T10:48:46.968Z,3.90
2022-12-31T10:53:14.257Z,4.63
2022-12-31T10:57:22.560Z,4.87
2022-12-31T11:01:34.050Z,3.13
2022-12-31T11:05:51.063Z,3.30
2022-12-31T11:10:08.518Z,4.27
2022-12-31T11:14:30.659Z,5.00
2022-12-31T11:18:41.903Z,3.57
2022-12-31T11:22:59.402Z,14.40
2022-12-31T11:27:10.228Z,2.70
2022-12-31T11:31:31.496Z,4.57
2022-12-31T11:36:09.883Z,3.57
2022-12-31T11:40:30.008Z,5.07
2022-12-31T11:44:53.115Z,5.07
2022-12-31T11:49:03.910Z,4.67
2022-12-31T11:53:15.256Z,2.80
2022-12-31T11:57:26.858Z,3.97
2022-12-31T12:01:52.644Z,3.67
2022-12-31T12:05:56.474Z,3.10
2022-12-31T12:10:01.183Z,5.23
2022-12-31T12:14:21.770Z,3.20
2022-12-31T12:18:27.337Z,3.73
2022-12-31T12:22:30.271Z,3.13
2022-12-31T12:26:37.800Z,3.50
2022-12-31T12:30:40.725Z,4.03
2022-12-31T12:34:49.114Z,5.13
2022-12-31T12:38:45.674Z,3.90
2022-12-31T12:42:50.205Z,3.47
2022-12-31T12:46:52.636Z,3.63
2022-12-31T12:50:54.540Z,3.53
2022-12-31T12:55:08.650Z,4.60
2022-12-31T12:59:31.857Z,2.87
2022-12-31T13:04:33.435Z,2.83
2022-12-31T13:08:41.200Z,3.23
2022-12-31T13:13:23.847Z,5.70
2022-12-31T13:17:41.917Z,4.30
2022-12-31T13:21:58.833Z,3.10
2022-12-31T13:26:16.038Z,3.03
2022-12-31T13:30:29.648Z,2.77
2022-12-31T13:34:34.731Z,3.80
2022-12-31T13:38:58.115Z,4.00
2022-12-31T13:43:06.534Z,3.27
2022-12-31T13:47:28.246Z,3.93
2022-12-31T13:51:48.443Z,3.17
2022-12-31T13:55:58.381Z,4.30
2022-12-31T14:00:03.361Z,2.90
2022-12-31T14:04:11.396Z,3.40
2022-12-31T14:08:12.696Z,3.00
2022-12-31T14:12:32.871Z,3.63
2022-12-31T14:16:53.135Z,3.47
2022-12-31T14:21:13.236Z,4.60
2022-12-31T14:25:21.389Z,2.83
2022-12-31T14:29:32.143Z,3.73
2022-12-31T14:33:46.244Z,3.83
2022-12-31T14:37:54.340Z,2.20
2022-12-31T14:42:05.379Z,2.90
2022-12-31T14:46:32.029Z,3.43
2022-12-31T14:50:34.163Z,5.40
2022-12-31T14:54:37.520Z,2.73
2022-12-31T14:58:42.097Z,3.73
2022-12-31T15:02:47.300Z,3.37
2022-12-31T15:06:58.154Z,3.20
2022-12-31T15:11:12.017Z,3.77
2022-12-31T15:15:31.052Z,3.00
2022-12-31T15:19:42.159Z,3.13
2022-12-31T15:23:44.231Z,4.00
2022-12-31T15:27:46.645Z,2.97
2022-12-31T15:31:48.099Z,3.30
2022-12-31T15:35:55.064Z,2.83
2022-12-31T15:40:20.806Z,2.80
2022-12-31T15:44:44.274Z,3.50
2022-12-31T15:49:03.687Z,3.20
2022-12-31T15:53:03.027Z,2.30
2022-12-31T15:57:09.361Z,4.60
2022-12-31T16:01:16.410Z,3.67
2022-12-31T16:05:27.627Z,3.40
2022-12-31T16:09:35.129Z,4.93
2022-12-31T16:13:43.148Z,4.23
2022-12-31T16:17:45.850Z,4.70
2022-12-31T16:21:47.322Z,3.63
2022-12-31T16:25:50.604Z,3.50
2022-12-31T16:29:56.109Z,3.90
2022-12-31T16:34:06.536Z,4.00
2022-12-31T16:38:14.526Z,4.07
2022-12-31T16:42:21.231Z,4.47
2022-12-31T16:46:29.808Z,3.40
2022-12-31T16:50:31.367Z,3.30
2022-12-31T16:54:38.896Z,7.13
2022-12-31T16:58:44.426Z,3.67
2022-12-31T17:02:49.619Z,3.73
2022-12-31T17:06:50.882Z,4.20
2022-12-31T17:10:52.647Z,6.50
2022-12-31T17:14:57.657Z,4.63
2022-12-31T17:18:59.142Z,3.90
2022-12-31T17:23:08.006Z,4.63
2022-12-31T17:27:09.850Z,3.40
2022-12-31T17:31:32.987Z,4.30
2022-12-31T17:35:36.774Z,5.47
2022-12-31T17:39:44.435Z,7.37
2022-12-31T17:43:49.559Z,4.73
2022-12-31T17:47:52.950Z,4.83
2022-12-31T17:51:54.146Z,5.10
2022-12-31T17:55:58.730Z,3.33
2022-12-31T18:00:05.785Z,3.93
2022-12-31T18:04:16.313Z,3.80
2022-12-31T18:08:17.655Z,4.20
2022-12-31T18:12:19.097Z,4.20
2022-12-31T18:16:20.345Z,4.73
2022-12-31T18:20:22.343Z,4.30
2022-12-31T18:24:26.172Z,4.30
2022-12-31T18:28:26.500Z,7.00
2022-12-31T18:32:31.377Z,4.07
2022-12-31T18:36:32.871Z,3.10
2022-12-31T18:40:34.027Z,4.77
2022-12-31T18:44:35.233Z,4.83
2022-12-31T18:48:36.431Z,17.35
2022-12-31T18:52:37.592Z,11.07
2022-12-31T18:56:44.844Z,6.73
2022-12-31T19:00:42.888Z,4.07
2022-12-31T19:04:44.396Z,4.73
2022-12-31T19:08:45.573Z,6.37
2022-12-31T19:12:47.669Z,5.00
2022-12-31T19:16:50.252Z,5.30
2022-12-31T19:20:51.538Z,3.83
2022-12-31T19:24:52.715Z,4.87
2022-12-31T19:28:53.897Z,6.00
2022-12-31T19:32:55.061Z,5.87
2022-12-31T19:36:56.250Z,5.90
2022-12-31T19:40:57.541Z,5.40
2022-12-31T19:44:58.725Z,6.83
2022-12-31T19:48:59.904Z,4.87
2022-12-31T19:53:01.117Z,5.57
2022-12-31T19:57:02.306Z,6.60
2022-12-31T20:01:08.898Z,4.83
2022-12-31T20:05:12.998Z,5.57
2022-12-31T20:09:14.441Z,4.27
2022-12-31T20:13:15.638Z,7.50
2022-12-31T20:17:16.834Z,4.87
2022-12-31T20:21:21.213Z,6.13
2022-12-31T20:25:23.047Z,7.40
2022-12-31T20:29:24.243Z,5.63
2022-12-31T20:33:25.695Z,5.50
2022-12-31T20:37:27.114Z,7.13
2022-12-31T20:41:28.190Z,5.30
2022-12-31T20:45:29.358Z,7.83
2022-12-31T20:50:09.200Z,5.90
2022-12-31T20:53:33.697Z,7.40
2022-12-31T20:57:35.282Z,4.87
2022-12-31T21:02:18.879Z,7.30
2022-12-31T21:05:52.987Z,3.90
2022-12-31T21:09:54.209Z,5.50
2022-12-31T21:13:56.590Z,6.50
2022-12-31T21:17:59.472Z,4.77
2022-12-31T21:22:01.697Z,6.00
2022-12-31T21:26:03.489Z,8.63
2022-12-31T21:30:20.773Z,4.70
2022-12-31T21:34:09.484Z,4.93
2022-12-31T21:38:10.614Z,4.87
2022-12-31T21:42:13.006Z,4.47
2022-12-31T21:46:14.230Z,5.37
2022-12-31T21:50:15.586Z,6.23
2022-12-31T21:54:18.680Z,4.83
2022-12-31T21:58:28.142Z,6.93
2022-12-31T22:02:41.473Z,5.77
2022-12-31T22:06:44.342Z,5.97
2022-12-31T22:10:52.086Z,5.50
2022-12-31T22:15:14.224Z,4.50
2022-12-31T22:18:54.463Z,6.20
2022-12-31T22:22:55.879Z,4.30
2022-12-31T22:26:58.930Z,5.70
2022-12-31T22:31:01.977Z,6.07
2022-12-31T22:35:03.685Z,6.10
2022-12-31T22:39:04.813Z,6.83
2022-12-31T22:43:06.038Z,6.60
2022-12-31T22:47:07.222Z,5.90
2022-12-31T22:51:09.915Z,6.60
2022-12-31T22:55:11.201Z,7.20
2022-12-31T22:59:12.505Z,6.23
2022-12-31T23:03:14.225Z,7.90
2022-12-31T23:07:15.385Z,38.60
2022-12-31T23:11:16.601Z,71.30
2022-12-31T23:15:37.042Z,59.90
2022-12-31T23:19:56.745Z,49.03
2022-12-31T23:23:57.937Z,63.77
2022-12-31T23:27:59.112Z,30.17
2022-12-31T23:32:00.297Z,29.90
2022-12-31T23:36:04.394Z,31.73
2022-12-31T23:40:07.349Z,31.10
2022-12-31T23:44:11.202Z,36.27
2022-12-31T23:48:12.380Z,40.43
2022-12-31T23:52:13.467Z,39.27
2022-12-31T23:56:23.377Z,41.37
